createdAt,value
2022-11-30T00:01:43.724Z,55.90
2022-11-30T00:03:50.248Z,65.78
2022-11-30T00:05:56.247Z,59.23
2022-11-30T00:08:04.129Z,123.88
2022-11-30T00:12:18.386Z,496.45
2022-11-30T00:14:23.424Z,158.43
2022-11-30T00:16:29.324Z,80.90
2022-11-30T00:18:34.624Z,73.13
2022-11-30T00:20:39.641Z,103.28
2022-11-30T00:22:45.345Z,71.20
2022-11-30T00:24:52.853Z,71.70
2022-11-30T00:29:05.782Z,80.00
2022-11-30T00:31:15.000Z,55.53
2022-11-30T00:33:20.094Z,83.97
2022-11-30T00:35:25.132Z,53.88
2022-11-30T00:37:31.377Z,83.38
2022-11-30T00:39:36.433Z,60.50
2022-11-30T00:41:41.562Z,46.00
2022-11-30T00:43:49.585Z,44.83
2022-11-30T00:45:54.770Z,37.38
2022-11-30T00:48:00.210Z,42.08
2022-11-30T00:50:05.655Z,41.83
2022-11-30T00:52:10.714Z,61.00
2022-11-30T00:54:16.048Z,42.85
2022-11-30T00:56:21.451Z,54.13
2022-11-30T00:58:27.253Z,41.47
2022-11-30T01:00:34.859Z,42.22
2022-11-30T01:02:39.990Z,48.40
2022-11-30T01:04:45.337Z,47.67
2022-11-30T01:06:51.259Z,43.03
2022-11-30T01:08:56.600Z,42.08
2022-11-30T01:11:11.307Z,46.97
2022-11-30T01:13:16.839Z,47.35
2022-11-30T01:15:21.891Z,57.80
2022-11-30T01:17:31.319Z,55.95
2022-11-30T01:19:36.413Z,55.17
2022-11-30T01:21:41.949Z,53.33
2022-11-30T01:23:47.296Z,43.60
2022-11-30T01:25:57.675Z,57.15
2022-11-30T01:28:03.211Z,54.92
2022-11-30T01:30:11.091Z,51.40
2022-11-30T01:32:16.385Z,39.17
2022-11-30T01:34:24.583Z,54.40
2022-11-30T01:36:30.174Z,42.75
2022-11-30T01:38:36.602Z,43.35
2022-11-30T01:40:41.622Z,43.08
2022-11-30T01:42:49.929Z,40.00
2022-11-30T01:45:01.402Z,47.90
2022-11-30T01:47:11.626Z,38.72
2022-11-30T01:49:21.708Z,37.72
2022-11-30T01:51:34.473Z,37.30
2022-11-30T01:53:39.599Z,42.25
2022-11-30T01:55:49.902Z,42.10
2022-11-30T01:58:00.444Z,39.92
2022-11-30T02:00:10.728Z,44.00
2022-11-30T02:02:22.540Z,42.95
2022-11-30T02:04:32.521Z,51.05
2022-11-30T02:06:40.709Z,62.72
2022-11-30T02:08:46.210Z,41.45
2022-11-30T02:10:56.170Z,42.65
2022-11-30T02:13:41.225Z,32.17
2022-11-30T02:16:00.218Z,35.92
2022-11-30T02:18:13.711Z,31.20
2022-11-30T02:20:53.300Z,31.45
2022-11-30T02:23:51.385Z,31.48
2022-11-30T02:26:11.785Z,30.75
2022-11-30T02:28:56.752Z,35.78
2022-11-30T02:31:06.731Z,42.58
2022-11-30T02:33:18.264Z,30.38
2022-11-30T02:35:29.106Z,29.20
2022-11-30T02:37:36.882Z,32.35
2022-11-30T02:41:47.089Z,33.63
2022-11-30T02:43:55.333Z,23.83
2022-11-30T02:46:11.346Z,26.88
2022-11-30T02:48:20.586Z,30.92
2022-11-30T02:50:31.475Z,24.27
2022-11-30T02:52:37.425Z,28.27
2022-11-30T02:54:43.204Z,25.45
2022-11-30T02:56:48.589Z,23.35
2022-11-30T02:58:56.328Z,25.30
2022-11-30T03:01:01.425Z,31.50
2022-11-30T03:03:07.469Z,24.73
2022-11-30T03:05:13.239Z,22.88
2022-11-30T03:07:20.920Z,18.77
2022-11-30T03:09:26.362Z,23.48
2022-11-30T03:11:31.666Z,23.98
2022-11-30T03:13:37.200Z,20.00
2022-11-30T03:15:45.188Z,24.10
2022-11-30T03:17:50.246Z,23.83
2022-11-30T03:19:55.314Z,25.83
2022-11-30T03:22:00.730Z,29.13
2022-11-30T03:24:05.834Z,35.33
2022-11-30T03:26:12.669Z,27.45
2022-11-30T03:28:18.305Z,27.38
2022-11-30T03:30:24.800Z,25.45
2022-11-30T03:32:33.471Z,24.70
2022-11-30T03:34:38.537Z,24.13
2022-11-30T03:36:44.441Z,28.45
2022-11-30T03:38:51.267Z,24.33
2022-11-30T03:41:03.831Z,29.85
2022-11-30T03:43:09.625Z,24.73
2022-11-30T03:45:14.753Z,25.80
2022-11-30T03:47:19.792Z,25.60
2022-11-30T03:49:28.239Z,25.55
2022-11-30T03:53:39.685Z,22.77
2022-11-30T03:55:45.016Z,25.65
2022-11-30T03:57:50.069Z,30.33
2022-11-30T03:59:55.161Z,38.35
2022-11-30T04:02:00.250Z,36.83
2022-11-30T04:04:06.259Z,32.22
2022-11-30T04:06:15.946Z,22.75
2022-11-30T04:08:21.359Z,24.42
2022-11-30T04:10:26.567Z,21.70
2022-11-30T04:12:31.674Z,22.63
2022-11-30T04:14:37.405Z,23.70
2022-11-30T04:16:42.453Z,26.85
2022-11-30T04:18:48.981Z,27.80
2022-11-30T04:20:55.042Z,29.02
2022-11-30T04:23:03.093Z,23.35
2022-11-30T04:27:14.422Z,28.63
2022-11-30T04:29:19.508Z,23.45
2022-11-30T04:31:24.579Z,30.52
2022-11-30T04:33:30.857Z,28.83
2022-11-30T04:35:37.068Z,20.50
2022-11-30T04:37:42.282Z,21.67
2022-11-30T04:39:50.404Z,24.00
2022-11-30T04:41:55.504Z,20.65
2022-11-30T04:44:00.550Z,21.95
2022-11-30T04:46:05.785Z,24.92
2022-11-30T04:48:11.723Z,25.17
2022-11-30T04:50:19.149Z,23.05
2022-11-30T04:52:24.159Z,27.10
2022-11-30T04:54:29.191Z,21.88
2022-11-30T04:56:37.347Z,26.10
2022-11-30T04:58:42.793Z,26.77
2022-11-30T05:00:48.132Z,25.48
2022-11-30T05:02:53.460Z,23.52
2022-11-30T05:04:58.988Z,24.42
2022-11-30T05:07:04.531Z,14.43
2022-11-30T05:09:10.485Z,15.02
2022-11-30T05:11:15.773Z,19.60
2022-11-30T05:13:24.531Z,19.42
2022-11-30T05:15:29.871Z,21.33
2022-11-30T05:17:35.108Z,19.35
2022-11-30T05:19:40.153Z,21.20
2022-11-30T05:21:46.100Z,18.42
2022-11-30T05:23:52.381Z,21.23
2022-11-30T05:25:58.161Z,19.85
2022-11-30T05:28:03.258Z,18.17
2022-11-30T05:30:14.265Z,15.27
2022-11-30T05:32:19.452Z,19.42
2022-11-30T05:34:25.238Z,19.85
2022-11-30T05:36:30.313Z,14.75
2022-11-30T05:38:35.426Z,19.17
2022-11-30T05:40:41.559Z,16.70
2022-11-30T05:42:46.764Z,14.55
2022-11-30T05:44:51.792Z,18.65
2022-11-30T05:47:00.785Z,16.73
2022-11-30T05:49:05.920Z,17.02
2022-11-30T05:51:13.728Z,14.63
2022-11-30T05:53:18.737Z,13.20
2022-11-30T05:55:24.432Z,15.45
2022-11-30T06:02:44.513Z,17.23
2022-11-30T06:06:55.757Z,18.17
2022-11-30T06:09:01.131Z,14.15
2022-11-30T06:11:06.522Z,15.70
2022-11-30T06:13:11.826Z,13.50
2022-11-30T06:15:16.888Z,16.05
2022-11-30T06:17:21.987Z,16.10
2022-11-30T06:19:30.122Z,18.27
2022-11-30T06:21:35.244Z,18.90
2022-11-30T06:23:41.180Z,17.00
2022-11-30T06:25:46.357Z,20.27
2022-11-30T06:27:51.282Z,18.33
2022-11-30T06:29:56.868Z,20.85
2022-11-30T06:32:02.024Z,20.13
2022-11-30T06:34:07.126Z,17.08
2022-11-30T06:36:14.787Z,17.13
2022-11-30T06:38:19.984Z,17.38
2022-11-30T06:40:25.267Z,26.17
2022-11-30T06:42:32.270Z,21.27
2022-11-30T06:44:37.658Z,25.30
2022-11-30T06:46:43.677Z,19.50
2022-11-30T06:48:51.432Z,25.33
2022-11-30T06:50:56.390Z,20.23
2022-11-30T06:53:04.050Z,22.08
2022-11-30T06:55:10.861Z,20.98
2022-11-30T06:57:15.816Z,38.97
2022-11-30T06:59:20.985Z,22.75
2022-11-30T07:01:26.190Z,25.30
2022-11-30T07:03:31.338Z,28.63
2022-11-30T07:05:42.402Z,24.33
2022-11-30T07:07:47.443Z,25.23
2022-11-30T07:14:08.595Z,28.08
2022-11-30T07:16:15.185Z,21.27
2022-11-30T07:18:20.337Z,27.48
2022-11-30T07:20:25.275Z,33.97
2022-11-30T07:22:30.451Z,20.92
2022-11-30T07:24:48.261Z,24.50
2022-11-30T07:26:56.310Z,22.65
2022-11-30T07:29:01.316Z,19.38
2022-11-30T07:31:16.839Z,17.00
2022-11-30T07:33:21.938Z,21.05
2022-11-30T07:35:26.899Z,26.98
2022-11-30T07:37:32.140Z,28.35
2022-11-30T07:39:37.274Z,25.25
2022-11-30T07:41:42.845Z,23.25
2022-11-30T07:43:50.548Z,31.85
2022-11-30T07:45:56.221Z,29.90
2022-11-30T07:48:02.079Z,29.38
2022-11-30T07:50:08.342Z,24.13
2022-11-30T07:52:13.830Z,30.33
2022-11-30T07:54:18.853Z,26.50
2022-11-30T07:56:25.499Z,25.70
2022-11-30T07:58:32.431Z,25.40
2022-11-30T08:00:40.677Z,26.58
2022-11-30T08:02:46.397Z,23.67
2022-11-30T08:04:52.458Z,22.00
2022-11-30T08:06:57.847Z,23.67
2022-11-30T08:09:05.744Z,25.55
2022-11-30T08:13:18.049Z,18.45
2022-11-30T08:15:28.984Z,20.35
2022-11-30T08:17:39.739Z,17.98
2022-11-30T08:19:44.886Z,18.42
2022-11-30T08:21:49.868Z,19.73
2022-11-30T08:23:57.868Z,18.20
2022-11-30T08:26:06.477Z,22.40
2022-11-30T08:28:11.475Z,24.60
2022-11-30T08:30:17.697Z,22.08
2022-11-30T08:32:22.809Z,20.80
2022-11-30T08:34:30.544Z,18.02
2022-11-30T08:36:37.626Z,15.30
2022-11-30T08:38:44.162Z,15.55
2022-11-30T08:40:49.587Z,15.88
2022-11-30T08:42:54.522Z,15.80
2022-11-30T08:45:00.009Z,15.77
2022-11-30T08:47:06.134Z,13.18
2022-11-30T08:49:26.821Z,15.70
2022-11-30T08:54:00.105Z,14.93
2022-11-30T08:56:08.565Z,14.57
2022-11-30T08:58:13.599Z,16.33
2022-11-30T09:00:20.096Z,15.55
2022-11-30T09:02:25.652Z,16.45
2022-11-30T09:04:30.770Z,14.60
2022-11-30T09:06:39.177Z,15.00
2022-11-30T09:08:46.241Z,14.32
2022-11-30T09:10:52.081Z,17.85
2022-11-30T09:12:57.239Z,14.98
2022-11-30T09:15:02.683Z,15.20
2022-11-30T09:17:08.049Z,13.27
2022-11-30T09:19:13.435Z,12.25
2022-11-30T09:21:20.739Z,11.02
2022-11-30T09:23:29.064Z,12.50
2022-11-30T09:25:34.297Z,12.32
2022-11-30T09:27:39.425Z,11.35
2022-11-30T09:29:44.529Z,15.38
2022-11-30T09:31:49.753Z,13.80
2022-11-30T09:33:55.838Z,15.70
2022-11-30T09:36:02.142Z,14.63
2022-11-30T09:38:07.566Z,10.93
2022-11-30T09:40:17.853Z,11.45
2022-11-30T09:42:42.323Z,13.05
2022-11-30T09:44:57.212Z,16.00
2022-11-30T09:47:13.604Z,12.40
2022-11-30T09:49:24.535Z,13.43
2022-11-30T09:51:36.084Z,14.23
2022-11-30T09:53:45.974Z,11.77
2022-11-30T09:55:56.233Z,11.95
2022-11-30T09:58:05.759Z,11.02
2022-11-30T10:00:19.093Z,13.50
2022-11-30T10:02:27.812Z,10.57
2022-11-30T10:04:33.498Z,14.02
2022-11-30T10:06:49.198Z,11.40
2022-11-30T10:09:23.270Z,12.00
2022-11-30T10:11:50.696Z,10.13
2022-11-30T10:14:10.668Z,12.68
2022-11-30T10:16:30.275Z,14.85
2022-11-30T10:18:48.670Z,12.13
2022-11-30T10:21:08.265Z,16.00
2022-11-30T10:23:32.526Z,12.38
2022-11-30T10:25:49.005Z,10.93
2022-11-30T10:28:12.612Z,9.30
2022-11-30T10:30:28.982Z,12.50
2022-11-30T10:32:40.970Z,10.93
2022-11-30T10:34:47.685Z,11.13
2022-11-30T10:37:02.963Z,10.55
2022-11-30T10:39:16.787Z,12.18
2022-11-30T10:41:27.528Z,10.55
2022-11-30T10:43:40.548Z,9.15
2022-11-30T10:45:50.839Z,9.65
2022-11-30T10:48:06.774Z,11.90
2022-11-30T10:50:18.466Z,10.20
2022-11-30T10:52:31.027Z,10.60
2022-11-30T10:54:39.494Z,9.98
2022-11-30T10:56:44.962Z,13.75
2022-11-30T10:59:00.494Z,9.63
2022-11-30T11:01:09.914Z,9.65
2022-11-30T11:03:27.303Z,11.13
2022-11-30T11:05:33.839Z,10.95
2022-11-30T11:07:50.882Z,9.05
2022-11-30T11:09:56.268Z,10.60
2022-11-30T11:12:04.540Z,8.45
2022-11-30T11:14:25.147Z,8.43
2022-11-30T11:16:30.928Z,14.02
2022-11-30T11:18:37.436Z,8.15
2022-11-30T11:20:43.422Z,7.72
2022-11-30T11:22:48.970Z,8.52
2022-11-30T11:24:56.643Z,7.82
2022-11-30T11:27:02.031Z,8.02
2022-11-30T11:29:07.027Z,8.25
2022-11-30T11:31:38.538Z,6.88
2022-11-30T11:33:55.731Z,8.50
2022-11-30T11:36:17.608Z,8.85
2022-11-30T11:38:29.510Z,7.03
2022-11-30T11:40:34.775Z,8.02
2022-11-30T11:42:45.775Z,7.32
2022-11-30T11:44:55.033Z,7.65
2022-11-30T11:47:06.111Z,9.35
2022-11-30T11:49:24.053Z,8.45
2022-11-30T11:51:35.873Z,10.55
2022-11-30T11:53:53.038Z,8.02
2022-11-30T11:56:07.427Z,9.57
2022-11-30T11:58:24.417Z,9.18
2022-11-30T12:00:29.590Z,7.38
2022-11-30T12:02:43.503Z,8.38
2022-11-30T12:04:51.755Z,10.60
2022-11-30T12:06:59.346Z,9.95
2022-11-30T12:09:14.478Z,10.35
2022-11-30T12:11:25.120Z,10.63
2022-11-30T12:13:35.376Z,9.10
2022-11-30T12:15:54.990Z,8.98
2022-11-30T12:18:24.179Z,9.65
2022-11-30T12:20:42.015Z,10.15
2022-11-30T12:23:10.073Z,8.98
2022-11-30T12:25:28.952Z,10.70
2022-11-30T12:27:49.120Z,8.18
2022-11-30T12:30:10.068Z,9.48
2022-11-30T12:32:33.133Z,10.10
2022-11-30T12:34:58.928Z,9.27
2022-11-30T12:37:16.555Z,10.25
2022-11-30T12:39:32.958Z,9.15
2022-11-30T12:41:45.157Z,10.38
2022-11-30T12:44:00.876Z,9.60
2022-11-30T12:46:14.980Z,11.40
2022-11-30T12:48:34.991Z,8.27
2022-11-30T12:50:55.294Z,8.60
2022-11-30T12:53:12.544Z,10.38
2022-11-30T12:55:31.535Z,13.40
2022-11-30T12:57:40.498Z,9.00
2022-11-30T12:59:58.614Z,9.02
2022-11-30T13:02:36.208Z,10.65
2022-11-30T13:04:47.162Z,8.63
2022-11-30T13:07:01.066Z,9.68
2022-11-30T13:09:13.730Z,9.88
2022-11-30T13:11:24.440Z,11.40
2022-11-30T13:13:34.874Z,11.70
2022-11-30T13:15:42.019Z,11.07
2022-11-30T13:17:49.745Z,10.75
2022-11-30T13:20:04.664Z,11.32
2022-11-30T13:22:19.979Z,11.60
2022-11-30T13:24:29.992Z,15.20
2022-11-30T13:26:43.158Z,18.77
2022-11-30T13:29:17.417Z,20.10
2022-11-30T13:31:27.704Z,19.70
2022-11-30T13:33:51.355Z,23.15
2022-11-30T13:35:57.296Z,24.70
2022-11-30T13:40:43.992Z,26.27
2022-11-30T13:42:51.914Z,16.67
2022-11-30T13:44:57.570Z,23.42
2022-11-30T13:47:04.490Z,21.98
2022-11-30T13:49:23.212Z,22.67
2022-11-30T13:51:40.444Z,17.77
2022-11-30T13:53:48.089Z,14.63
2022-11-30T13:56:22.117Z,12.30
2022-11-30T13:58:28.179Z,16.05
2022-11-30T14:01:02.933Z,13.82
2022-11-30T14:03:29.473Z,12.63
2022-11-30T14:05:43.434Z,15.15
2022-11-30T14:08:10.090Z,13.02
2022-11-30T14:10:34.710Z,12.25
2022-11-30T14:13:03.201Z,11.43
2022-11-30T14:15:48.472Z,12.82
2022-11-30T14:17:59.800Z,15.35
2022-11-30T14:20:19.411Z,18.80
2022-11-30T14:22:24.849Z,22.63
2022-11-30T14:24:31.075Z,25.92
2022-11-30T14:26:43.290Z,29.52
2022-11-30T14:29:00.129Z,30.23
2022-11-30T14:31:08.305Z,37.70
2022-11-30T14:33:21.330Z,28.42
2022-11-30T14:35:26.863Z,36.15
2022-11-30T14:37:40.338Z,46.38
2022-11-30T14:39:48.139Z,25.95
2022-11-30T14:46:14.601Z,34.20
2022-11-30T14:48:22.520Z,33.17
2022-11-30T14:50:29.710Z,25.50
2022-11-30T14:52:54.258Z,23.70
2022-11-30T14:55:17.739Z,37.85
2022-11-30T14:57:33.568Z,28.40
2022-11-30T14:59:50.321Z,38.97
2022-11-30T15:01:59.955Z,37.83
2022-11-30T15:04:16.192Z,21.85
2022-11-30T15:06:23.821Z,19.08
2022-11-30T15:08:38.173Z,35.90
2022-11-30T15:10:44.136Z,33.67
2022-11-30T15:12:52.719Z,45.88
2022-11-30T15:15:15.744Z,42.13
2022-11-30T15:17:20.753Z,35.10
2022-11-30T15:19:29.656Z,47.90
2022-11-30T15:21:35.629Z,31.92
2022-11-30T15:23:41.017Z,39.78
2022-11-30T15:25:50.492Z,26.75
2022-11-30T15:27:58.859Z,36.45
2022-11-30T15:30:04.503Z,34.97
2022-11-30T15:32:18.213Z,29.52
2022-11-30T15:34:29.493Z,27.98
2022-11-30T15:36:38.409Z,27.65
2022-11-30T15:38:43.718Z,37.08
2022-11-30T15:40:54.548Z,32.20
2022-11-30T15:43:04.651Z,42.92
2022-11-30T15:45:24.146Z,36.55
2022-11-30T15:47:37.762Z,37.95
2022-11-30T15:49:53.291Z,28.42
2022-11-30T15:52:05.814Z,31.00
2022-11-30T15:54:11.134Z,30.77
2022-11-30T15:56:27.848Z,24.30
2022-11-30T15:58:45.569Z,26.05
2022-11-30T16:01:11.017Z,23.20
2022-11-30T16:03:16.639Z,19.40
2022-11-30T16:05:28.609Z,26.02
2022-11-30T16:07:36.686Z,24.45
2022-11-30T16:09:41.895Z,24.65
2022-11-30T16:11:49.267Z,30.42
2022-11-30T16:13:56.903Z,29.33
2022-11-30T16:16:02.377Z,31.13
2022-11-30T16:18:21.390Z,17.20
2022-11-30T16:20:26.826Z,24.95
2022-11-30T16:22:31.789Z,23.45
2022-11-30T16:24:37.166Z,20.92
2022-11-30T16:26:57.429Z,23.55
2022-11-30T16:29:05.107Z,24.85
2022-11-30T16:31:17.583Z,22.85
2022-11-30T16:33:26.685Z,22.60
2022-11-30T16:35:40.030Z,18.17
2022-11-30T16:37:45.032Z,20.08
2022-11-30T16:39:50.426Z,25.45
2022-11-30T16:41:55.586Z,25.42
2022-11-30T16:44:03.707Z,19.40
2022-11-30T16:54:54.015Z,22.40
2022-11-30T16:56:59.009Z,19.75
2022-11-30T16:59:08.081Z,23.40
2022-11-30T17:01:21.136Z,22.60
2022-11-30T17:03:30.835Z,20.77
2022-11-30T17:05:36.127Z,21.35
2022-11-30T17:07:41.249Z,19.38
2022-11-30T17:09:46.430Z,20.38
2022-11-30T17:11:53.280Z,26.92
2022-11-30T17:13:58.416Z,21.65
2022-11-30T17:16:06.392Z,25.10
2022-11-30T17:18:12.947Z,23.38
2022-11-30T17:20:19.669Z,23.48
2022-11-30T17:22:24.753Z,33.63
2022-11-30T17:24:29.797Z,21.83
2022-11-30T17:26:34.894Z,36.97
2022-11-30T17:28:41.489Z,28.23
2022-11-30T17:30:46.614Z,68.00
2022-11-30T17:32:54.298Z,38.78
2022-11-30T17:35:01.492Z,58.15
2022-11-30T17:37:06.504Z,61.05
2022-11-30T17:39:12.473Z,36.97
2022-11-30T17:41:20.366Z,33.33
2022-11-30T17:45:30.698Z,29.65
2022-11-30T17:47:35.688Z,28.42
2022-11-30T17:49:43.306Z,27.65
2022-11-30T17:51:48.352Z,27.17
2022-11-30T17:53:53.659Z,27.63
2022-11-30T17:56:06.937Z,24.60
2022-11-30T17:58:12.046Z,25.33
2022-11-30T18:00:18.797Z,25.60
2022-11-30T18:02:24.103Z,30.67
2022-11-30T18:04:29.484Z,25.98
2022-11-30T18:06:37.130Z,27.65
2022-11-30T18:08:42.919Z,28.13
2022-11-30T18:10:48.087Z,35.28
2022-11-30T18:12:53.256Z,26.98
2022-11-30T18:15:01.296Z,28.05
2022-11-30T18:17:06.463Z,26.73
2022-11-30T18:19:15.088Z,25.83
2022-11-30T18:21:23.021Z,29.50
2022-11-30T18:25:36.543Z,27.42
2022-11-30T18:27:41.880Z,28.17
2022-11-30T18:29:47.201Z,29.88
2022-11-30T18:31:52.419Z,30.08
2022-11-30T18:33:58.261Z,27.52
2022-11-30T18:36:06.380Z,29.77
2022-11-30T18:38:11.436Z,28.50
2022-11-30T18:40:19.532Z,34.42
2022-11-30T18:42:24.557Z,31.67
2022-11-30T18:44:29.561Z,34.90
2022-11-30T18:46:34.934Z,33.38
2022-11-30T18:48:41.528Z,50.65
2022-11-30T18:50:46.900Z,63.58
2022-11-30T18:52:54.806Z,58.37
2022-11-30T18:54:59.814Z,37.80
2022-11-30T18:57:07.463Z,40.75
2022-11-30T18:59:16.899Z,39.97
2022-11-30T19:01:23.871Z,40.20
2022-11-30T19:03:31.602Z,38.53
2022-11-30T19:05:40.864Z,39.08
2022-11-30T19:07:45.951Z,36.28
2022-11-30T19:09:51.425Z,35.22
2022-11-30T19:11:58.070Z,42.92
2022-11-30T19:14:06.958Z,43.25
2022-11-30T19:16:14.968Z,44.28
2022-11-30T19:18:23.143Z,42.13
2022-11-30T19:20:29.059Z,35.35
2022-11-30T19:22:35.615Z,36.70
2022-11-30T19:24:41.021Z,39.22
2022-11-30T19:26:46.499Z,36.35
2022-11-30T19:28:51.828Z,38.35
2022-11-30T19:31:00.081Z,37.55
2022-11-30T19:35:11.836Z,34.45
2022-11-30T19:37:16.977Z,37.20
2022-11-30T19:39:22.290Z,38.45
2022-11-30T19:41:28.380Z,33.85
2022-11-30T19:43:33.647Z,45.67
2022-11-30T19:45:40.897Z,39.35
2022-11-30T19:47:48.535Z,39.13
2022-11-30T19:49:53.587Z,42.75
2022-11-30T19:51:58.625Z,42.25
2022-11-30T19:54:04.461Z,42.67
2022-11-30T19:56:11.857Z,38.88
2022-11-30T19:58:17.197Z,41.47
2022-11-30T20:00:23.224Z,37.55
2022-11-30T20:02:28.318Z,39.60
2022-11-30T20:04:36.000Z,38.50
2022-11-30T20:06:41.733Z,43.40
2022-11-30T20:08:47.398Z,58.72
2022-11-30T20:10:52.991Z,80.65
2022-11-30T20:12:59.325Z,46.28
2022-11-30T20:15:04.310Z,62.13
2022-11-30T20:17:10.389Z,62.55
2022-11-30T20:19:15.465Z,84.65
2022-11-30T20:21:26.613Z,77.68
2022-11-30T20:23:31.606Z,65.70
2022-11-30T20:25:37.233Z,57.63
2022-11-30T20:27:42.961Z,69.22
2022-11-30T20:29:47.996Z,58.50
2022-11-30T20:31:53.620Z,48.33
2022-11-30T20:33:58.872Z,73.90
2022-11-30T20:36:04.571Z,65.78
2022-11-30T20:38:12.131Z,50.97
2022-11-30T20:40:17.491Z,63.58
2022-11-30T20:42:22.547Z,51.33
2022-11-30T20:44:27.591Z,82.53
2022-11-30T20:46:35.868Z,83.07
2022-11-30T20:48:41.710Z,49.03
2022-11-30T20:51:01.104Z,49.25
2022-11-30T20:53:14.765Z,51.42
2022-11-30T20:55:20.061Z,51.30
2022-11-30T20:57:25.733Z,52.28
2022-11-30T20:59:30.747Z,49.53
2022-11-30T21:01:35.996Z,45.15
2022-11-30T21:03:42.469Z,50.30
2022-11-30T21:05:47.924Z,45.67
2022-11-30T21:07:53.050Z,46.33
2022-11-30T21:10:01.250Z,44.50
2022-11-30T21:12:08.130Z,47.58
2022-11-30T21:14:14.463Z,43.75
2022-11-30T21:16:27.640Z,44.33
2022-11-30T21:18:33.838Z,47.30
2022-11-30T21:20:38.837Z,44.33
2022-11-30T21:22:44.907Z,52.47
2022-11-30T21:24:51.699Z,42.67
2022-11-30T21:26:59.301Z,48.78
2022-11-30T21:29:08.056Z,48.08
2022-11-30T21:31:13.340Z,48.45
2022-11-30T21:33:18.420Z,47.38
2022-11-30T21:35:24.140Z,44.72
2022-11-30T21:37:29.184Z,47.78
2022-11-30T21:39:36.348Z,48.58
2022-11-30T21:41:44.160Z,46.63
2022-11-30T21:43:52.370Z,47.38
2022-11-30T21:46:02.173Z,48.17
2022-11-30T21:48:08.282Z,50.70
2022-11-30T21:50:14.753Z,48.53
2022-11-30T21:52:20.345Z,45.93
2022-11-30T21:54:25.336Z,49.53
2022-11-30T21:56:32.674Z,49.83
2022-11-30T21:58:38.469Z,45.00
2022-11-30T22:00:46.159Z,49.08
2022-11-30T22:02:51.398Z,46.55
2022-11-30T22:04:56.448Z,51.30
2022-11-30T22:07:01.983Z,54.00
2022-11-30T22:09:10.365Z,49.60
2022-11-30T22:11:17.600Z,50.67
2022-11-30T22:13:22.620Z,51.42
2022-11-30T22:15:27.628Z,50.45
2022-11-30T22:17:35.591Z,50.30
2022-11-30T22:19:41.148Z,55.13
2022-11-30T22:21:50.011Z,54.10
2022-11-30T22:23:57.802Z,54.13
2022-11-30T22:26:15.344Z,56.55
2022-11-30T22:28:20.344Z,57.78
2022-11-30T22:30:25.971Z,48.85
2022-11-30T22:32:31.324Z,54.38
2022-11-30T22:34:38.915Z,55.92
2022-11-30T22:36:46.747Z,50.53
2022-11-30T22:41:07.539Z,22.08
2022-11-30T22:43:12.549Z,15.68
2022-11-30T22:45:18.387Z,15.80
2022-11-30T22:47:23.372Z,14.45
2022-11-30T22:49:28.533Z,11.35
2022-11-30T22:51:38.884Z,11.82
2022-11-30T22:53:44.956Z,13.38
2022-11-30T22:55:50.472Z,12.45
2022-11-30T22:57:56.253Z,13.52
2022-11-30T23:00:01.365Z,14.55
2022-11-30T23:02:06.789Z,15.80
2022-11-30T23:04:14.889Z,23.02
2022-11-30T23:06:22.833Z,15.98
2022-11-30T23:08:31.575Z,16.83
2022-11-30T23:10:36.611Z,17.05
2022-11-30T23:12:59.047Z,15.50
2022-11-30T23:15:04.836Z,17.15
2022-11-30T23:19:18.390Z,17.23
2022-11-30T23:21:27.319Z,18.63
2022-11-30T23:23:35.153Z,17.60
2022-11-30T23:25:40.186Z,15.23
2022-11-30T23:27:45.713Z,17.85
2022-11-30T23:29:51.061Z,16.77
2022-11-30T23:31:56.168Z,19.08
2022-11-30T23:34:01.335Z,17.75
2022-11-30T23:36:08.170Z,17.98
2022-11-30T23:38:14.174Z,19.90
2022-11-30T23:40:22.227Z,19.42
2022-11-30T23:42:27.245Z,21.88
2022-11-30T23:44:32.748Z,20.27
2022-11-30T23:46:38.565Z,18.83
2022-11-30T23:48:44.446Z,17.70
2022-11-30T23:50:49.411Z,22.38
2022-11-30T23:52:55.199Z,20.35
2022-11-30T23:55:00.215Z,19.67
2022-11-30T23:57:07.768Z,19.27
2022-11-30T23:59:12.786Z,21.95
